sensor_id;sensor_type;location;lat;lon;timestamp;pressure;altitude;pressure_sealevel;temperature;humidity
77159;BME280;66129;45.890;13.714;2024-03-06T00:01:39;100743.06;;;13.11;79.08
77159;BME280;66129;45.890;13.714;2024-03-06T00:04:04;100749.06;;;13.12;79.59
77159;BME280;66129;45.890;13.714;2024-03-06T00:06:30;100744.75;;;13.11;78.66
77159;BME280;66129;45.890;13.714;2024-03-06T00:08:56;100751.66;;;13.15;78.54
77159;BME280;66129;45.890;13.714;2024-03-06T00:11:21;100752.56;;;13.21;77.26
77159;BME280;66129;45.890;13.714;2024-03-06T00:13:47;100750.84;;;13.20;77.76
77159;BME280;66129;45.890;13.714;2024-03-06T00:16:13;100750.88;;;13.23;78.17
77159;BME280;66129;45.890;13.714;2024-03-06T00:18:39;100747.44;;;13.20;78.34
77159;BME280;66129;45.890;13.714;2024-03-06T00:21:05;100757.72;;;13.20;78.55
77159;BME280;66129;45.890;13.714;2024-03-06T00:23:31;100750.84;;;13.20;78.02
77159;BME280;66129;45.890;13.714;2024-03-06T00:25:57;100760.28;;;13.20;78.24
77159;BME280;66129;45.890;13.714;2024-03-06T00:28:23;100749.16;;;13.19;78.45
77159;BME280;66129;45.890;13.714;2024-03-06T00:30:49;100749.13;;;13.16;78.84
77159;BME280;66129;45.890;13.714;2024-03-06T00:33:15;100748.25;;;13.14;78.66
77159;BME280;66129;45.890;13.714;2024-03-06T00:35:40;100753.41;;;13.14;78.27
77159;BME280;66129;45.890;13.714;2024-03-06T00:38:06;100762.84;;;13.15;78.16
77159;BME280;66129;45.890;13.714;2024-03-06T00:40:31;100773.19;;;13.24;77.61
77159;BME280;66129;45.890;13.714;2024-03-06T00:42:57;100765.47;;;13.24;78.13
77159;BME280;66129;45.890;13.714;2024-03-06T00:45:23;100762.09;;;13.27;77.54
77159;BME280;66129;45.890;13.714;2024-03-06T00:47:49;100753.47;;;13.25;76.87
77159;BME280;66129;45.890;13.714;2024-03-06T00:50:14;100753.47;;;13.26;77.13
77159;BME280;66129;45.890;13.714;2024-03-06T00:52:42;100748.34;;;13.26;77.05
77159;BME280;66129;45.890;13.714;2024-03-06T00:55:08;100749.22;;;13.27;77.24
77159;BME280;66129;45.890;13.714;2024-03-06T00:57:34;100750.88;;;13.23;76.92
77159;BME280;66129;45.890;13.714;2024-03-06T00:59:59;100742.31;;;13.23;76.50
77159;BME280;66129;45.890;13.714;2024-03-06T01:02:25;100749.25;;;13.31;76.58
77159;BME280;66129;45.890;13.714;2024-03-06T01:04:50;100743.19;;;13.26;76.34
77159;BME280;66129;45.890;13.714;2024-03-06T01:07:16;100749.16;;;13.22;76.91
77159;BME280;66129;45.890;13.714;2024-03-06T01:09:41;100750.13;;;13.33;76.10
77159;BME280;66129;45.890;13.714;2024-03-06T01:12:07;100757.00;;;13.34;76.23
77159;BME280;66129;45.890;13.714;2024-03-06T01:14:32;100744.88;;;13.24;76.63
77159;BME280;66129;45.890;13.714;2024-03-06T01:16:59;100762.13;;;13.35;76.66
77159;BME280;66129;45.890;13.714;2024-03-06T01:19:24;100757.81;;;13.30;76.96
77159;BME280;66129;45.890;13.714;2024-03-06T01:21:50;100749.25;;;13.31;76.39
77159;BME280;66129;45.890;13.714;2024-03-06T01:24:15;100749.22;;;13.28;76.86
77159;BME280;66129;45.890;13.714;2024-03-06T01:26:40;100752.66;;;13.30;76.81
77159;BME280;66129;45.890;13.714;2024-03-06T01:29:06;100750.09;;;13.29;77.32
77159;BME280;66129;45.890;13.714;2024-03-06T01:31:31;100743.22;;;13.28;76.83
77159;BME280;66129;45.890;13.714;2024-03-06T01:33:57;100735.44;;;13.23;76.55
77159;BME280;66129;45.890;13.714;2024-03-06T01:36:22;100744.94;;;13.30;76.70
77159;BME280;66129;45.890;13.714;2024-03-06T01:38:48;100746.63;;;13.28;77.32
77159;BME280;66129;45.890;13.714;2024-03-06T01:41:14;100744.00;;;13.22;77.23
77159;BME280;66129;45.890;13.714;2024-03-06T01:43:40;100750.13;;;13.33;76.51
77159;BME280;66129;45.890;13.714;2024-03-06T01:46:06;100750.13;;;13.32;76.72
77159;BME280;66129;45.890;13.714;2024-03-06T01:48:33;100757.00;;;13.38;76.53
77159;BME280;66129;45.890;13.714;2024-03-06T01:51:02;100769.88;;;13.38;76.96
77159;BME280;66129;45.890;13.714;2024-03-06T01:53:31;100745.69;;;13.20;77.83
77159;BME280;66129;45.890;13.714;2024-03-06T01:55:57;100764.69;;;13.31;78.20
77159;BME280;66129;45.890;13.714;2024-03-06T01:58:23;100768.09;;;13.30;80.24
77159;BME280;66129;45.890;13.714;2024-03-06T02:00:50;100760.28;;;13.20;81.83
77159;BME280;66129;45.890;13.714;2024-03-06T02:03:15;100760.31;;;13.18;84.60
77159;BME280;66129;45.890;13.714;2024-03-06T02:05:41;100761.91;;;13.07;87.87
77159;BME280;66129;45.890;13.714;2024-03-06T02:08:08;100751.50;;;12.98;89.24
77159;BME280;66129;45.890;13.714;2024-03-06T02:10:34;100759.16;;;12.92;90.85
77159;BME280;66129;45.890;13.714;2024-03-06T02:13:00;100757.38;;;12.85;90.78
77159;BME280;66129;45.890;13.714;2024-03-06T02:15:25;100769.38;;;12.86;92.21
77159;BME280;66129;45.890;13.714;2024-03-06T02:17:51;100768.44;;;12.78;94.43
77159;BME280;66129;45.890;13.714;2024-03-06T02:20:23;100776.97;;;12.76;92.42
77159;BME280;66129;45.890;13.714;2024-03-06T02:22:50;100767.47;;;12.70;93.87
77159;BME280;66129;45.890;13.714;2024-03-06T02:25:16;100764.09;;;12.73;93.96
77159;BME280;66129;45.890;13.714;2024-03-06T02:27:42;100774.34;;;12.71;93.76
77159;BME280;66129;45.890;13.714;2024-03-06T02:30:09;100776.03;;;12.69;94.96
77159;BME280;66129;45.890;13.714;2024-03-06T02:32:34;100772.53;;;12.63;97.32
77159;BME280;66129;45.890;13.714;2024-03-06T02:35:03;100775.91;;;12.57;98.52
77159;BME280;66129;45.890;13.714;2024-03-06T02:37:29;100784.56;;;12.64;99.65
77159;BME280;66129;45.890;13.714;2024-03-06T02:39:54;100767.28;;;12.52;99.37
77159;BME280;66129;45.890;13.714;2024-03-06T02:42:20;100766.44;;;12.55;98.12
77159;BME280;66129;45.890;13.714;2024-03-06T02:44:45;100774.16;;;12.53;99.52
77159;BME280;66129;45.890;13.714;2024-03-06T02:47:11;100772.34;;;12.46;100.00
77159;BME280;66129;45.890;13.714;2024-03-06T02:49:36;100768.00;;;12.42;100.00
77159;BME280;66129;45.890;13.714;2024-03-06T02:52:02;100777.38;;;12.37;100.00
77159;BME280;66129;45.890;13.714;2024-03-06T02:54:28;100781.44;;;12.22;100.00
77159;BME280;66129;45.890;13.714;2024-03-06T02:56:53;100780.53;;;12.17;100.00
77159;BME280;66129;45.890;13.714;2024-03-06T02:59:19;100765.94;;;12.16;100.00
77159;BME280;66129;45.890;13.714;2024-03-06T03:01:44;100767.63;;;12.13;100.00
77159;BME280;66129;45.890;13.714;2024-03-06T03:04:10;100768.56;;;12.19;100.00
77159;BME280;66129;45.890;13.714;2024-03-06T03:06:36;100782.19;;;12.14;100.00
77159;BME280;66129;45.890;13.714;2024-03-06T03:09:02;100787.34;;;12.15;100.00
77159;BME280;66129;45.890;13.714;2024-03-06T03:11:29;100774.28;;;11.99;100.00
77159;BME280;66129;45.890;13.714;2024-03-06T03:13:55;100788.09;;;12.07;100.00
77159;BME280;66129;45.890;13.714;2024-03-06T03:16:20;100788.03;;;12.02;100.00
77159;BME280;66129;45.890;13.714;2024-03-06T03:18:46;100773.41;;;11.98;100.00
77159;BME280;66129;45.890;13.714;2024-03-06T03:21:13;100770.84;;;11.98;100.00
77159;BME280;66129;45.890;13.714;2024-03-06T03:23:39;100768.19;;;11.91;100.00
77159;BME280;66129;45.890;13.714;2024-03-06T03:26:05;100770.59;;;11.80;100.00
77159;BME280;66129;45.890;13.714;2024-03-06T03:28:31;100785.09;;;11.77;100.00
77159;BME280;66129;45.890;13.714;2024-03-06T03:30:58;100773.69;;;11.60;100.00
77159;BME280;66129;45.890;13.714;2024-03-06T03:33:23;100771.97;;;11.60;100.00
77159;BME280;66129;45.890;13.714;2024-03-06T03:35:48;100786.59;;;11.63;100.00
77159;BME280;66129;45.890;13.714;2024-03-06T03:38:14;100791.69;;;11.61;100.00
77159;BME280;66129;45.890;13.714;2024-03-06T03:40:40;100788.19;;;11.56;100.00
77159;BME280;66129;45.890;13.714;2024-03-06T03:43:05;100779.53;;;11.53;100.00
77159;BME280;66129;45.890;13.714;2024-03-06T03:45:34;100788.91;;;11.49;100.00
77159;BME280;66129;45.890;13.714;2024-03-06T03:48:01;100789.88;;;11.54;100.00
77159;BME280;66129;45.890;13.714;2024-03-06T03:50:28;100789.75;;;11.50;100.00
77159;BME280;66129;45.890;13.714;2024-03-06T03:52:55;100797.47;;;11.50;100.00
77159;BME280;66129;45.890;13.714;2024-03-06T03:55:25;100792.97;;;11.37;100.00
77159;BME280;66129;45.890;13.714;2024-03-06T03:57:51;100803.13;;;11.31;100.00
77159;BME280;66129;45.890;13.714;2024-03-06T04:00:18;100798.84;;;11.30;100.00
77159;BME280;66129;45.890;13.714;2024-03-06T04:02:43;100805.72;;;11.32;100.00
77159;BME280;66129;45.890;13.714;2024-03-06T04:05:08;100800.34;;;11.17;100.00
77159;BME280;66129;45.890;13.714;2024-03-06T04:07:35;100816.56;;;11.18;100.00
77159;BME280;66129;45.890;13.714;2024-03-06T04:10:01;100799.38;;;11.12;100.00
77159;BME280;66129;45.890;13.714;2024-03-06T04:12:27;100788.81;;;10.96;100.00
77159;BME280;66129;45.890;13.714;2024-03-06T04:14:52;100800.63;;;10.88;100.00
77159;BME280;66129;45.890;13.714;2024-03-06T04:17:18;100798.00;;;10.84;100.00
77159;BME280;66129;45.890;13.714;2024-03-06T04:19:43;100801.41;;;10.84;100.00
77159;BME280;66129;45.890;13.714;2024-03-06T04:22:10;100815.94;;;10.84;100.00
77159;BME280;66129;45.890;13.714;2024-03-06T04:24:35;100815.88;;;10.79;100.00
77159;BME280;66129;45.890;13.714;2024-03-06T04:27:01;100810.28;;;10.57;100.00
77159;BME280;66129;45.890;13.714;2024-03-06T04:29:26;100810.50;;;10.69;100.00
77159;BME280;66129;45.890;13.714;2024-03-06T04:31:52;100812.22;;;10.68;100.00
77159;BME280;66129;45.890;13.714;2024-03-06T04:34:17;100808.81;;;10.69;100.00
77159;BME280;66129;45.890;13.714;2024-03-06T04:36:45;100796.19;;;10.80;100.00
77159;BME280;66129;45.890;13.714;2024-03-06T04:39:10;100808.13;;;10.78;100.00
77159;BME280;66129;45.890;13.714;2024-03-06T04:41:37;100812.34;;;10.76;100.00
77159;BME280;66129;45.890;13.714;2024-03-06T04:44:02;100818.13;;;10.64;100.00
77159;BME280;66129;45.890;13.714;2024-03-06T04:46:28;100821.63;;;10.69;100.00
77159;BME280;66129;45.890;13.714;2024-03-06T04:48:53;100812.16;;;10.65;100.00
77159;BME280;66129;45.890;13.714;2024-03-06T04:51:19;100805.22;;;10.61;100.00
77159;BME280;66129;45.890;13.714;2024-03-06T04:53:45;100817.34;;;10.68;100.00
77159;BME280;66129;45.890;13.714;2024-03-06T04:56:11;100810.28;;;10.58;100.00
77159;BME280;66129;45.890;13.714;2024-03-06T04:58:36;100817.34;;;10.68;100.00
77159;BME280;66129;45.890;13.714;2024-03-06T05:01:02;100825.72;;;10.61;100.00
77159;BME280;66129;45.890;13.714;2024-03-06T05:03:29;100834.19;;;10.57;100.00
77159;BME280;66129;45.890;13.714;2024-03-06T05:05:54;100833.88;;;10.42;100.00
77159;BME280;66129;45.890;13.714;2024-03-06T05:08:20;100842.50;;;10.46;100.00
77159;BME280;66129;45.890;13.714;2024-03-06T05:10:46;100849.34;;;10.45;100.00
77159;BME280;66129;45.890;13.714;2024-03-06T05:13:11;100870.63;;;10.43;100.00
77159;BME280;66129;45.890;13.714;2024-03-06T05:15:37;100874.00;;;10.42;100.00
77159;BME280;66129;45.890;13.714;2024-03-06T05:18:04;100872.47;;;10.48;100.00
77159;BME280;66129;45.890;13.714;2024-03-06T05:20:30;100869.06;;;10.49;100.00
77159;BME280;66129;45.890;13.714;2024-03-06T05:22:59;100870.06;;;10.57;100.00
77159;BME280;66129;45.890;13.714;2024-03-06T05:25:24;100876.00;;;10.55;100.00
77159;BME280;66129;45.890;13.714;2024-03-06T05:27:50;100880.94;;;10.46;100.00
77159;BME280;66129;45.890;13.714;2024-03-06T05:30:15;100881.16;;;10.55;100.00
77159;BME280;66129;45.890;13.714;2024-03-06T05:32:41;100871.50;;;10.43;100.00
77159;BME280;66129;45.890;13.714;2024-03-06T05:35:07;100879.34;;;10.51;100.00
77159;BME280;66129;45.890;13.714;2024-03-06T05:37:37;100882.00;;;10.55;100.00
77159;BME280;66129;45.890;13.714;2024-03-06T05:40:03;100893.22;;;10.60;100.00
77159;BME280;66129;45.890;13.714;2024-03-06T05:42:32;100895.78;;;10.60;100.00
77159;BME280;66129;45.890;13.714;2024-03-06T05:44:57;100890.59;;;10.57;100.00
77159;BME280;66129;45.890;13.714;2024-03-06T05:47:31;100885.22;;;10.45;100.00
77159;BME280;66129;45.890;13.714;2024-03-06T05:49:57;100891.94;;;10.40;100.00
77159;BME280;66129;45.890;13.714;2024-03-06T05:52:22;100897.06;;;10.42;100.00
77159;BME280;66129;45.890;13.714;2024-03-06T05:54:48;100897.97;;;10.42;100.00
77159;BME280;66129;45.890;13.714;2024-03-06T05:57:13;100893.69;;;10.43;100.00
77159;BME280;66129;45.890;13.714;2024-03-06T05:59:39;100908.91;;;10.37;100.00
77159;BME280;66129;45.890;13.714;2024-03-06T06:02:06;100903.63;;;10.29;100.00
77159;BME280;66129;45.890;13.714;2024-03-06T06:04:31;100918.00;;;10.23;100.00
77159;BME280;66129;45.890;13.714;2024-03-06T06:06:57;100926.44;;;10.19;100.00
77159;BME280;66129;45.890;13.714;2024-03-06T06:09:22;100927.25;;;10.16;100.00
77159;BME280;66129;45.890;13.714;2024-03-06T06:11:48;100933.13;;;10.14;100.00
77159;BME280;66129;45.890;13.714;2024-03-06T06:14:15;100936.94;;;10.29;100.00
77159;BME280;66129;45.890;13.714;2024-03-06T06:16:41;100942.13;;;10.32;100.00
77159;BME280;66129;45.890;13.714;2024-03-06T06:19:08;100949.81;;;10.32;100.00
77159;BME280;66129;45.890;13.714;2024-03-06T06:21:34;100955.91;;;10.37;100.00
77159;BME280;66129;45.890;13.714;2024-03-06T06:24:01;100952.44;;;10.35;100.00
77159;BME280;66129;45.890;13.714;2024-03-06T06:26:29;100951.44;;;10.29;100.00
77159;BME280;66129;45.890;13.714;2024-03-06T06:28:54;100958.22;;;10.27;100.00
77159;BME280;66129;45.890;13.714;2024-03-06T06:31:20;100957.34;;;10.26;100.00
77159;BME280;66129;45.890;13.714;2024-03-06T06:33:45;100964.06;;;10.21;100.00
77159;BME280;66129;45.890;13.714;2024-03-06T06:36:12;100963.03;;;10.13;100.00
77159;BME280;66129;45.890;13.714;2024-03-06T06:38:38;100962.13;;;10.11;100.00
77159;BME280;66129;45.890;13.714;2024-03-06T06:41:03;100951.03;;;10.12;100.00
77159;BME280;66129;45.890;13.714;2024-03-06T06:43:29;100949.19;;;10.07;100.00
77159;BME280;66129;45.890;13.714;2024-03-06T06:45:55;100955.09;;;10.03;100.00
77159;BME280;66129;45.890;13.714;2024-03-06T06:48:21;100967.25;;;10.13;100.00
77159;BME280;66129;45.890;13.714;2024-03-06T06:50:46;100948.50;;;10.14;100.00
77159;BME280;66129;45.890;13.714;2024-03-06T06:53:13;100952.13;;;10.22;100.00
77159;BME280;66129;45.890;13.714;2024-03-06T06:55:39;100946.13;;;10.21;100.00
77159;BME280;66129;45.890;13.714;2024-03-06T06:58:04;100944.47;;;10.23;100.00
77159;BME280;66129;45.890;13.714;2024-03-06T07:00:30;100952.16;;;10.23;100.00
77159;BME280;66129;45.890;13.714;2024-03-06T07:02:56;100945.50;;;10.31;100.00
77159;BME280;66129;45.890;13.714;2024-03-06T07:05:23;100941.19;;;10.29;100.00
77159;BME280;66129;45.890;13.714;2024-03-06T07:07:49;100951.53;;;10.33;100.00
77159;BME280;66129;45.890;13.714;2024-03-06T07:10:15;100950.63;;;10.31;100.00
77159;BME280;66129;45.890;13.714;2024-03-06T07:12:40;100943.94;;;10.36;100.00
77159;BME280;66129;45.890;13.714;2024-03-06T07:15:06;100931.88;;;10.32;100.00
77159;BME280;66129;45.890;13.714;2024-03-06T07:17:32;100939.72;;;10.40;100.00
77159;BME280;66129;45.890;13.714;2024-03-06T07:19:57;100932.78;;;10.34;100.00
77159;BME280;66129;45.890;13.714;2024-03-06T07:22:23;100930.31;;;10.39;100.00
77159;BME280;66129;45.890;13.714;2024-03-06T07:24:48;100938.81;;;10.38;100.00
77159;BME280;66129;45.890;13.714;2024-03-06T07:27:14;100928.78;;;10.47;100.00
77159;BME280;66129;45.890;13.714;2024-03-06T07:29:39;100949.34;;;10.48;100.00
77159;BME280;66129;45.890;13.714;2024-03-06T07:32:05;100930.53;;;10.48;100.00
77159;BME280;66129;45.890;13.714;2024-03-06T07:34:31;100941.91;;;10.60;100.00
77159;BME280;66129;45.890;13.714;2024-03-06T07:36:57;100936.53;;;10.48;100.00
77159;BME280;66129;45.890;13.714;2024-03-06T07:39:26;100945.16;;;10.52;100.00
77159;BME280;66129;45.890;13.714;2024-03-06T07:41:52;100939.13;;;10.50;100.00
77159;BME280;66129;45.890;13.714;2024-03-06T07:44:18;100945.16;;;10.53;100.00
77159;BME280;66129;45.890;13.714;2024-03-06T07:46:45;100937.41;;;10.50;100.00
77159;BME280;66129;45.890;13.714;2024-03-06T07:49:10;100947.78;;;10.55;100.00
77159;BME280;66129;45.890;13.714;2024-03-06T07:51:36;100957.06;;;10.51;100.00
77159;BME280;66129;45.890;13.714;2024-03-06T07:54:02;100967.22;;;10.45;100.00
77159;BME280;66129;45.890;13.714;2024-03-06T07:56:29;100959.53;;;10.45;100.00
77159;BME280;66129;45.890;13.714;2024-03-06T07:58:55;100969.03;;;10.49;100.00
77159;BME280;66129;45.890;13.714;2024-03-06T08:01:22;100971.44;;;10.43;100.00
77159;BME280;66129;45.890;13.714;2024-03-06T08:03:48;100972.84;;;10.31;100.00
77159;BME280;66129;45.890;13.714;2024-03-06T08:06:14;100976.19;;;10.28;100.00
77159;BME280;66129;45.890;13.714;2024-03-06T08:08:42;100984.84;;;10.33;100.00
77159;BME280;66129;45.890;13.714;2024-03-06T08:11:12;100988.28;;;10.34;100.00
77159;BME280;66129;45.890;13.714;2024-03-06T08:13:38;100994.19;;;10.31;100.00
77159;BME280;66129;45.890;13.714;2024-03-06T08:16:07;100994.19;;;10.31;100.00
77159;BME280;66129;45.890;13.714;2024-03-06T08:18:34;100991.63;;;10.31;100.00
77159;BME280;66129;45.890;13.714;2024-03-06T08:21:00;101011.47;;;10.40;100.00
77159;BME280;66129;45.890;13.714;2024-03-06T08:23:26;101005.25;;;10.29;100.00
77159;BME280;66129;45.890;13.714;2024-03-06T08:25:51;101008.06;;;10.39;100.00
77159;BME280;66129;45.890;13.714;2024-03-06T08:28:18;101025.00;;;10.33;100.00
77159;BME280;66129;45.890;13.714;2024-03-06T08:30:43;101020.81;;;10.38;100.00
77159;BME280;66129;45.890;13.714;2024-03-06T08:33:10;101031.13;;;10.39;100.00
77159;BME280;66129;45.890;13.714;2024-03-06T08:35:35;101035.25;;;10.33;100.00
77159;BME280;66129;45.890;13.714;2024-03-06T08:38:01;101036.81;;;10.28;100.00
77159;BME280;66129;45.890;13.714;2024-03-06T08:40:26;101030.00;;;10.28;100.00
77159;BME280;66129;45.890;13.714;2024-03-06T08:42:53;101046.25;;;10.29;100.00
77159;BME280;66129;45.890;13.714;2024-03-06T08:45:19;101034.09;;;10.22;100.00
77159;BME280;66129;45.890;13.714;2024-03-06T08:47:45;101049.56;;;10.26;100.00
77159;BME280;66129;45.890;13.714;2024-03-06T08:50:12;101049.56;;;10.26;100.00
77159;BME280;66129;45.890;13.714;2024-03-06T08:52:39;101053.69;;;10.20;100.00
77159;BME280;66129;45.890;13.714;2024-03-06T08:55:06;101056.22;;;10.18;100.00
77159;BME280;66129;45.890;13.714;2024-03-06T08:57:33;101063.94;;;10.20;100.00
77159;BME280;66129;45.890;13.714;2024-03-06T08:59:59;101043.91;;;10.05;100.00
77159;BME280;66129;45.890;13.714;2024-03-06T09:02:25;101059.19;;;10.02;100.00
77159;BME280;66129;45.890;13.714;2024-03-06T09:04:51;101061.84;;;10.05;100.00
77159;BME280;66129;45.890;13.714;2024-03-06T09:07:17;101063.53;;;10.05;100.00
77159;BME280;66129;45.890;13.714;2024-03-06T09:09:43;101038.72;;;10.02;100.00
77159;BME280;66129;45.890;13.714;2024-03-06T09:12:09;101041.19;;;9.99;100.00
77159;BME280;66129;45.890;13.714;2024-03-06T09:14:36;101032.25;;;9.86;100.00
77159;BME280;66129;45.890;13.714;2024-03-06T09:17:03;101017.47;;;9.76;100.00
77159;BME280;66129;45.890;13.714;2024-03-06T09:19:30;101019.13;;;9.74;100.00
77159;BME280;66129;45.890;13.714;2024-03-06T09:21:56;101043.94;;;9.76;100.00
77159;BME280;66129;45.890;13.714;2024-03-06T09:24:22;101050.75;;;9.76;100.00
77159;BME280;66129;45.890;13.714;2024-03-06T09:26:49;101057.72;;;9.81;100.00
77159;BME280;66129;45.890;13.714;2024-03-06T09:29:15;101051.78;;;9.82;100.00
77159;BME280;66129;45.890;13.714;2024-03-06T09:31:41;101055.44;;;9.91;100.00
77159;BME280;66129;45.890;13.714;2024-03-06T09:34:07;101053.06;;;9.97;100.00
77159;BME280;66129;45.890;13.714;2024-03-06T09:36:32;101051.59;;;10.05;100.00
77159;BME280;66129;45.890;13.714;2024-03-06T09:38:59;101059.41;;;10.10;100.00
77159;BME280;66129;45.890;13.714;2024-03-06T09:41:25;101053.59;;;10.15;100.00
77159;BME280;66129;45.890;13.714;2024-03-06T09:43:50;101051.97;;;10.20;100.00
77159;BME280;66129;45.890;13.714;2024-03-06T09:46:17;101034.66;;;10.10;100.00
77159;BME280;66129;45.890;13.714;2024-03-06T09:48:47;101048.72;;;10.26;100.00
77159;BME280;66129;45.890;13.714;2024-03-06T09:51:14;101049.75;;;10.32;100.00
77159;BME280;66129;45.890;13.714;2024-03-06T09:53:41;101051.66;;;10.41;100.00
77159;BME280;66129;45.890;13.714;2024-03-06T09:56:10;101039.59;;;10.37;100.00
77159;BME280;66129;45.890;13.714;2024-03-06T09:58:35;101032.94;;;10.43;100.00
77159;BME280;66129;45.890;13.714;2024-03-06T10:01:02;101042.63;;;10.55;100.00
77159;BME280;66129;45.890;13.714;2024-03-06T10:03:29;101025.44;;;10.52;100.00
77159;BME280;66129;45.890;13.714;2024-03-06T10:05:55;101022.13;;;10.56;100.00
77159;BME280;66129;45.890;13.714;2024-03-06T10:08:21;101022.25;;;10.61;100.00
77159;BME280;66129;45.890;13.714;2024-03-06T10:10:50;101025.00;;;10.70;100.00
77159;BME280;66129;45.890;13.714;2024-03-06T10:13:16;101020.00;;;10.74;100.00
77159;BME280;66129;45.890;13.714;2024-03-06T10:15:48;101028.84;;;10.87;100.00
77159;BME280;66129;45.890;13.714;2024-03-06T10:18:20;101028.19;;;10.95;100.00
77159;BME280;66129;45.890;13.714;2024-03-06T10:20:46;101033.41;;;11.00;100.00
77159;BME280;66129;45.890;13.714;2024-03-06T10:23:11;101025.78;;;11.02;100.00
77159;BME280;66129;45.890;13.714;2024-03-06T10:25:37;101035.66;;;11.24;100.00
77159;BME280;66129;45.890;13.714;2024-03-06T10:28:13;101023.69;;;11.25;100.00
77159;BME280;66129;45.890;13.714;2024-03-06T10:30:40;101030.72;;;11.33;100.00
77159;BME280;66129;45.890;13.714;2024-03-06T10:33:12;101028.16;;;11.33;100.00
77159;BME280;66129;45.890;13.714;2024-03-06T10:35:43;101036.97;;;11.46;100.00
77159;BME280;66129;45.890;13.714;2024-03-06T10:38:09;101044.72;;;11.47;100.00
77159;BME280;66129;45.890;13.714;2024-03-06T10:40:40;101032.88;;;11.54;100.00
77159;BME280;66129;45.890;13.714;2024-03-06T10:43:07;101033.78;;;11.56;100.00
77159;BME280;66129;45.890;13.714;2024-03-06T10:48:08;101040.72;;;11.61;100.00
77159;BME280;66129;45.890;13.714;2024-03-06T10:50:38;101024.34;;;11.55;100.00
77159;BME280;66129;45.890;13.714;2024-03-06T10:53:08;101033.19;;;11.69;100.00
77159;BME280;66129;45.890;13.714;2024-03-06T10:55:35;101039.31;;;11.77;100.00
77159;BME280;66129;45.890;13.714;2024-03-06T10:58:06;101032.66;;;11.86;100.00
77159;BME280;66129;45.890;13.714;2024-03-06T11:00:45;101033.53;;;11.87;100.00
77159;BME280;66129;45.890;13.714;2024-03-06T11:03:14;101030.97;;;11.88;100.00
77159;BME280;66129;45.890;13.714;2024-03-06T11:05:45;101028.97;;;11.72;100.00
77159;BME280;66129;45.890;13.714;2024-03-06T11:08:13;101031.53;;;11.72;100.00
77159;BME280;66129;45.890;13.714;2024-03-06T11:10:41;101043.66;;;11.79;100.00
77159;BME280;66129;45.890;13.714;2024-03-06T11:13:24;101040.34;;;11.85;100.00
77159;BME280;66129;45.890;13.714;2024-03-06T11:15:57;101025.78;;;11.84;100.00
77159;BME280;66129;45.890;13.714;2024-03-06T11:23:30;101031.88;;;11.89;100.00
77159;BME280;66129;45.890;13.714;2024-03-06T11:25:59;101042.41;;;12.04;100.00
77159;BME280;66129;45.890;13.714;2024-03-06T11:28:27;101032.09;;;12.02;98.69
77159;BME280;66129;45.890;13.714;2024-03-06T11:31:03;101039.88;;;12.07;100.00
77159;BME280;66129;45.890;13.714;2024-03-06T11:33:52;101030.38;;;12.03;98.50
77159;BME280;66129;45.890;13.714;2024-03-06T11:36:25;101026.31;;;12.14;100.00
77159;BME280;66129;45.890;13.714;2024-03-06T11:39:05;101016.03;;;12.12;100.00
77159;BME280;66129;45.890;13.714;2024-03-06T11:41:48;101026.53;;;12.25;100.00
77159;BME280;66129;45.890;13.714;2024-03-06T11:44:20;101010.16;;;12.20;100.00
77159;BME280;66129;45.890;13.714;2024-03-06T11:46:57;101012.13;;;12.36;100.00
77159;BME280;66129;45.890;13.714;2024-03-06T11:49:30;101008.59;;;12.28;100.00
77159;BME280;66129;45.890;13.714;2024-03-06T11:52:07;101008.53;;;12.25;100.00
77159;BME280;66129;45.890;13.714;2024-03-06T11:54:36;101013.13;;;12.44;100.00
77159;BME280;66129;45.890;13.714;2024-03-06T11:57:03;101001.31;;;12.57;100.00
77159;BME280;66129;45.890;13.714;2024-03-06T11:59:31;101000.31;;;12.47;98.62
77159;BME280;66129;45.890;13.714;2024-03-06T12:02:00;101000.59;;;12.64;100.00
77159;BME280;66129;45.890;13.714;2024-03-06T12:04:34;100998.13;;;12.71;100.00
77159;BME280;66129;45.890;13.714;2024-03-06T12:07:02;101002.38;;;12.68;94.77
77159;BME280;66129;45.890;13.714;2024-03-06T12:09:32;100995.50;;;12.67;97.04
77159;BME280;66129;45.890;13.714;2024-03-06T12:11:58;101001.44;;;12.64;96.19
77159;BME280;66129;45.890;13.714;2024-03-06T12:14:24;100986.16;;;12.73;97.58
77159;BME280;66129;45.890;13.714;2024-03-06T12:16:56;100984.47;;;12.77;95.58
77159;BME280;66129;45.890;13.714;2024-03-06T12:19:22;100977.50;;;12.68;98.43
77159;BME280;66129;45.890;13.714;2024-03-06T12:21:48;100989.59;;;12.75;95.26
77159;BME280;66129;45.890;13.714;2024-03-06T12:24:16;100983.22;;;12.49;95.79
77159;BME280;66129;45.890;13.714;2024-03-06T12:26:44;100976.31;;;12.47;98.49
77159;BME280;66129;45.890;13.714;2024-03-06T12:29:11;100978.91;;;12.48;97.61
77159;BME280;66129;45.890;13.714;2024-03-06T12:31:38;100970.53;;;12.60;96.32
77159;BME280;66129;45.890;13.714;2024-03-06T12:34:05;100969.78;;;12.67;93.30
77159;BME280;66129;45.890;13.714;2024-03-06T12:36:32;100976.66;;;12.68;95.11
77159;BME280;66129;45.890;13.714;2024-03-06T12:39:02;100978.38;;;12.70;93.92